createdAt,value
2023-05-13T00:00:55.795Z,13.94
2023-05-13T00:03:25.920Z,13.92
2023-05-13T00:06:02.073Z,13.89
2023-05-13T00:08:34.820Z,13.85
2023-05-13T00:11:05.118Z,13.82
2023-05-13T00:13:35.286Z,13.81
2023-05-13T00:16:06.087Z,13.78
2023-05-13T00:18:36.124Z,13.73
2023-05-13T00:21:06.399Z,13.71
2023-05-13T00:23:39.178Z,13.69
2023-05-13T00:26:09.268Z,13.64
2023-05-13T00:28:39.619Z,13.63
2023-05-13T00:31:10.231Z,13.61
2023-05-13T00:33:40.551Z,13.59
2023-05-13T00:36:12.658Z,13.44
2023-05-13T00:38:45.908Z,13.56
2023-05-13T00:41:16.075Z,13.57
2023-05-13T00:43:46.186Z,13.57
2023-05-13T00:46:18.050Z,13.61
2023-05-13T00:48:48.653Z,13.62
2023-05-13T00:51:19.225Z,13.62
2023-05-13T00:53:53.665Z,13.62
2023-05-13T00:56:24.577Z,13.59
2023-05-13T00:58:55.018Z,13.58
2023-05-13T01:01:34.258Z,13.57
2023-05-13T01:04:13.091Z,13.58
2023-05-13T01:06:52.630Z,13.54
2023-05-13T01:09:35.997Z,13.51
2023-05-13T01:12:11.848Z,13.51
2023-05-13T01:14:48.336Z,13.48
2023-05-13T01:17:24.257Z,13.47
2023-05-13T01:19:59.834Z,13.44
2023-05-13T01:22:33.206Z,13.43
2023-05-13T01:25:03.893Z,13.43
2023-05-13T01:27:38.150Z,13.38
2023-05-13T01:30:11.263Z,13.35
2023-05-13T01:32:41.843Z,13.32
2023-05-13T01:35:13.945Z,13.29
2023-05-13T01:37:51.220Z,13.27
2023-05-13T01:40:32.528Z,13.22
2023-05-13T01:43:09.258Z,13.19
2023-05-13T01:45:40.028Z,13.17
2023-05-13T01:48:10.357Z,13.13
2023-05-13T01:50:47.616Z,13.11
2023-05-13T01:53:20.624Z,13.08
2023-05-13T01:55:53.380Z,13.05
2023-05-13T01:58:24.693Z,12.99
2023-05-13T02:00:54.903Z,12.97
2023-05-13T02:03:25.330Z,12.92
2023-05-13T02:05:58.168Z,12.85
2023-05-13T02:08:34.268Z,12.79
2023-05-13T02:11:04.889Z,12.72
2023-05-13T02:13:35.102Z,12.73
2023-05-13T02:16:05.756Z,12.71
2023-05-13T02:18:36.012Z,12.70
2023-05-13T02:21:08.410Z,12.70
2023-05-13T02:23:41.583Z,12.65
2023-05-13T02:26:15.002Z,12.57
2023-05-13T02:28:44.956Z,12.53
2023-05-13T02:31:16.549Z,12.50
2023-05-13T02:33:47.351Z,12.47
2023-05-13T02:36:17.820Z,12.45
2023-05-13T02:38:50.892Z,12.42
2023-05-13T02:41:20.991Z,12.41
2023-05-13T02:43:52.507Z,12.36
2023-05-13T02:46:22.641Z,12.34
2023-05-13T02:48:52.749Z,12.34
2023-05-13T02:51:22.925Z,12.15
2023-05-13T02:53:55.582Z,12.25
2023-05-13T02:56:26.307Z,12.22
2023-05-13T02:58:56.463Z,12.23
2023-05-13T03:01:26.864Z,12.17
2023-05-13T03:03:57.136Z,12.12
2023-05-13T03:06:31.854Z,12.07
2023-05-13T03:09:04.566Z,12.06
2023-05-13T03:11:38.047Z,12.03
2023-05-13T03:14:08.947Z,11.97
2023-05-13T03:16:45.064Z,11.90
2023-05-13T03:19:17.851Z,11.89
2023-05-13T03:21:52.167Z,11.91
2023-05-13T03:24:27.301Z,11.95
2023-05-13T03:27:01.055Z,12.02
2023-05-13T03:29:32.175Z,12.07
2023-05-13T03:32:08.203Z,12.02
2023-05-13T03:34:38.503Z,11.99
2023-05-13T03:37:09.081Z,11.97
2023-05-13T03:39:42.901Z,11.96
2023-05-13T03:42:13.245Z,11.95
2023-05-13T03:44:43.541Z,11.97
2023-05-13T03:47:14.981Z,11.93
2023-05-13T03:49:45.116Z,11.97
2023-05-13T03:52:18.306Z,11.92
2023-05-13T03:54:56.906Z,11.96
2023-05-13T03:57:27.000Z,11.98
2023-05-13T03:59:58.230Z,11.98
2023-05-13T04:02:29.094Z,12.01
2023-05-13T04:04:59.509Z,12.12
2023-05-13T04:07:29.672Z,12.17
2023-05-13T04:10:02.446Z,12.20
2023-05-13T04:12:33.854Z,12.09
2023-05-13T04:15:04.212Z,12.13
2023-05-13T04:17:34.534Z,12.12
2023-05-13T04:20:04.863Z,12.09
2023-05-13T04:22:35.090Z,12.03
2023-05-13T04:25:10.361Z,11.96
2023-05-13T04:27:40.550Z,12.14
2023-05-13T04:30:16.944Z,12.19
2023-05-13T04:32:49.179Z,12.20
2023-05-13T04:35:19.749Z,12.20
2023-05-13T04:37:55.121Z,12.31
2023-05-13T04:40:27.989Z,12.39
2023-05-13T04:43:03.123Z,12.49
2023-05-13T04:45:38.764Z,12.62
2023-05-13T04:48:14.571Z,12.73
2023-05-13T04:50:48.445Z,12.89
2023-05-13T04:53:20.574Z,13.00
2023-05-13T04:56:01.996Z,13.07
2023-05-13T04:58:35.784Z,13.13
2023-05-13T05:01:05.825Z,13.21
2023-05-13T05:03:39.084Z,13.41
2023-05-13T05:06:09.602Z,14.43
2023-05-13T05:08:39.730Z,16.12
2023-05-13T05:11:15.120Z,17.51
2023-05-13T05:13:45.458Z,18.37
2023-05-13T05:16:15.583Z,18.83
2023-05-13T05:18:46.265Z,19.19
2023-05-13T05:21:18.324Z,19.01
2023-05-13T05:23:48.704Z,19.08
2023-05-13T05:26:22.528Z,19.38
2023-05-13T05:28:53.085Z,19.70
2023-05-13T05:31:23.421Z,20.06
2023-05-13T05:33:55.303Z,20.16
2023-05-13T05:36:25.536Z,20.20
2023-05-13T05:38:55.711Z,20.23
2023-05-13T05:41:34.452Z,20.45
2023-05-13T05:44:04.588Z,20.40
2023-05-13T05:46:36.661Z,20.56
2023-05-13T05:49:08.460Z,20.57
2023-05-13T05:51:39.708Z,20.59
2023-05-13T05:54:11.280Z,20.82
2023-05-13T05:56:44.675Z,21.25
2023-05-13T05:59:14.732Z,21.44
2023-05-13T06:01:44.829Z,21.54
2023-05-13T06:04:15.067Z,21.68
2023-05-13T06:06:45.522Z,21.70
2023-05-13T06:09:15.704Z,21.59
2023-05-13T06:11:48.498Z,21.61
2023-05-13T06:14:19.938Z,21.67
2023-05-13T06:16:49.872Z,21.61
2023-05-13T06:19:20.030Z,21.15
2023-05-13T06:21:50.409Z,20.66
2023-05-13T06:24:20.537Z,20.19
2023-05-13T06:26:53.397Z,19.93
2023-05-13T06:29:23.571Z,19.72
2023-05-13T06:31:53.566Z,19.46
2023-05-13T06:34:24.091Z,19.19
2023-05-13T06:36:54.128Z,18.91
2023-05-13T06:39:24.171Z,18.47
2023-05-13T06:41:59.816Z,18.06
2023-05-13T06:44:40.752Z,17.97
2023-05-13T06:47:15.002Z,17.71
2023-05-13T06:49:46.999Z,18.00
2023-05-13T06:52:18.852Z,18.20
2023-05-13T06:54:57.612Z,18.01
2023-05-13T06:57:41.951Z,17.63
2023-05-13T07:00:14.533Z,17.45
2023-05-13T07:02:45.779Z,17.50
2023-05-13T07:05:16.055Z,17.61
2023-05-13T07:07:46.274Z,17.77
2023-05-13T07:10:16.500Z,17.86
2023-05-13T07:12:51.991Z,17.90
2023-05-13T07:15:27.034Z,17.89
2023-05-13T07:17:57.152Z,17.79
2023-05-13T07:20:27.343Z,17.78
2023-05-13T07:22:57.518Z,17.71
2023-05-13T07:25:28.181Z,17.69
2023-05-13T07:28:00.853Z,17.69
2023-05-13T07:30:34.045Z,17.69
2023-05-13T07:33:06.090Z,17.71
2023-05-13T07:35:37.711Z,17.76
2023-05-13T07:38:07.877Z,17.62
2023-05-13T07:40:37.943Z,17.71
2023-05-13T07:43:10.631Z,17.65
2023-05-13T07:45:41.448Z,17.56
2023-05-13T07:48:13.536Z,17.46
2023-05-13T07:50:44.505Z,17.65
2023-05-13T07:53:14.767Z,17.89
2023-05-13T07:55:45.082Z,18.13
2023-05-13T07:58:18.774Z,18.35
2023-05-13T08:00:49.659Z,18.25
2023-05-13T08:03:22.254Z,18.33
2023-05-13T08:05:52.288Z,18.30
2023-05-13T08:08:26.581Z,18.32
2023-05-13T08:10:56.678Z,18.26
2023-05-13T08:13:29.424Z,18.38
2023-05-13T08:15:59.478Z,18.47
2023-05-13T08:18:29.780Z,18.44
2023-05-13T08:21:00.398Z,18.55
2023-05-13T08:23:44.173Z,18.68
2023-05-13T08:26:16.586Z,18.81
2023-05-13T08:28:51.067Z,18.70
2023-05-13T08:31:25.278Z,18.81
2023-05-13T08:33:55.657Z,18.95
2023-05-13T08:36:28.888Z,19.00
2023-05-13T08:38:58.868Z,19.14
2023-05-13T08:41:38.482Z,19.26
2023-05-13T08:44:12.620Z,19.24
2023-05-13T08:46:47.633Z,19.10
2023-05-13T08:49:17.784Z,19.09
2023-05-13T08:51:51.566Z,19.15
2023-05-13T08:54:24.010Z,19.23
2023-05-13T08:56:54.376Z,19.11
2023-05-13T08:59:27.214Z,19.09
2023-05-13T09:01:57.854Z,19.22
2023-05-13T09:04:28.908Z,19.38
2023-05-13T09:06:59.351Z,19.52
2023-05-13T09:09:29.409Z,19.66
2023-05-13T09:11:59.451Z,19.70
2023-05-13T09:14:35.368Z,19.41
2023-05-13T09:17:08.074Z,19.61
2023-05-13T09:19:39.197Z,19.75
2023-05-13T09:22:20.302Z,19.97
2023-05-13T09:24:56.789Z,19.91
2023-05-13T09:27:40.295Z,19.88
2023-05-13T09:30:14.306Z,19.92
2023-05-13T09:32:45.055Z,19.98
2023-05-13T09:35:20.692Z,20.07
2023-05-13T09:37:52.095Z,20.19
2023-05-13T09:40:22.712Z,20.39
2023-05-13T09:42:53.389Z,20.44
2023-05-13T09:45:29.104Z,20.59
2023-05-13T09:47:59.358Z,20.65
2023-05-13T09:50:30.189Z,20.69
2023-05-13T09:53:00.444Z,20.71
2023-05-13T09:55:34.176Z,20.67
2023-05-13T09:58:04.276Z,20.67
2023-05-13T10:00:39.431Z,20.87
2023-05-13T10:03:10.920Z,20.98
2023-05-13T10:05:42.466Z,20.89
2023-05-13T10:08:14.076Z,20.95
2023-05-13T10:10:48.781Z,21.01
2023-05-13T10:13:27.395Z,21.05
2023-05-13T10:16:01.363Z,21.00
2023-05-13T10:18:37.226Z,20.98
2023-05-13T10:21:08.527Z,21.07
2023-05-13T10:23:39.290Z,21.16
2023-05-13T10:26:09.721Z,21.25
2023-05-13T10:28:41.238Z,21.21
2023-05-13T10:31:13.844Z,21.42
2023-05-13T10:33:45.485Z,21.50
2023-05-13T10:36:37.920Z,21.45
2023-05-13T10:39:31.590Z,21.32
2023-05-13T10:42:37.256Z,21.42
2023-05-13T10:45:08.214Z,21.50
2023-05-13T10:47:41.379Z,21.37
2023-05-13T10:50:27.635Z,21.52
2023-05-13T10:53:03.772Z,21.74
2023-05-13T10:55:42.436Z,21.81
2023-05-13T10:58:15.146Z,21.75
2023-05-13T11:00:46.425Z,21.96
2023-05-13T11:03:31.675Z,22.06
2023-05-13T11:06:07.097Z,22.09
2023-05-13T11:08:41.588Z,22.07
2023-05-13T11:11:27.203Z,22.01
2023-05-13T11:13:58.459Z,21.92
2023-05-13T11:16:30.295Z,22.02
2023-05-13T11:19:05.305Z,22.09
2023-05-13T11:21:39.834Z,22.21
2023-05-13T11:24:10.740Z,22.44
2023-05-13T11:26:49.200Z,22.50
2023-05-13T11:29:31.060Z,22.54
2023-05-13T11:32:12.783Z,22.86
2023-05-13T11:34:53.875Z,23.05
2023-05-13T11:37:24.585Z,23.06
2023-05-13T11:39:55.339Z,22.80
2023-05-13T11:42:26.644Z,22.28
2023-05-13T11:44:57.504Z,22.13
2023-05-13T11:47:34.501Z,22.02
2023-05-13T11:50:21.374Z,21.94
2023-05-13T11:53:13.922Z,21.87
2023-05-13T11:55:45.340Z,21.96
2023-05-13T11:58:19.100Z,21.81
2023-05-13T12:00:52.920Z,21.80
2023-05-13T12:03:24.550Z,22.24
2023-05-13T12:06:06.805Z,22.44
2023-05-13T12:08:37.066Z,22.58
2023-05-13T12:11:10.323Z,22.68
2023-05-13T12:13:40.509Z,22.65
2023-05-13T12:16:11.579Z,22.45
2023-05-13T12:18:41.602Z,22.16
2023-05-13T12:21:24.425Z,21.86
2023-05-13T12:23:54.429Z,22.16
2023-05-13T12:26:24.655Z,22.09
2023-05-13T12:29:02.598Z,22.02
2023-05-13T12:31:32.874Z,21.76
2023-05-13T12:34:02.994Z,21.77
2023-05-13T12:36:50.846Z,21.89
2023-05-13T12:39:24.173Z,22.10
2023-05-13T12:41:55.012Z,22.16
2023-05-13T12:44:30.127Z,22.30
2023-05-13T12:47:02.737Z,22.55
2023-05-13T12:49:33.492Z,22.47
2023-05-13T12:52:06.322Z,22.43
2023-05-13T12:54:36.470Z,22.74
2023-05-13T12:57:25.636Z,22.97
2023-05-13T12:59:56.338Z,23.16
2023-05-13T13:02:49.645Z,23.16
2023-05-13T13:05:21.079Z,23.09
2023-05-13T13:07:54.669Z,22.50
2023-05-13T13:10:25.423Z,22.26
2023-05-13T13:12:56.509Z,21.99
2023-05-13T13:15:28.729Z,21.80
2023-05-13T13:17:59.279Z,21.69
2023-05-13T13:20:33.075Z,21.72
2023-05-13T13:23:10.195Z,22.06
2023-05-13T13:25:41.517Z,22.41
2023-05-13T13:28:12.050Z,22.62
2023-05-13T13:30:46.967Z,23.01
2023-05-13T13:33:26.529Z,23.47
2023-05-13T13:35:57.185Z,23.35
2023-05-13T13:38:30.414Z,22.98
2023-05-13T13:41:01.002Z,22.61
2023-05-13T13:43:31.870Z,22.23
2023-05-13T13:46:02.506Z,21.90
2023-05-13T13:48:39.682Z,21.66
2023-05-13T13:51:13.396Z,21.46
2023-05-13T13:53:46.530Z,21.36
2023-05-13T13:56:24.672Z,21.44
2023-05-13T13:58:55.418Z,21.69
2023-05-13T14:01:26.577Z,21.99
2023-05-13T14:04:19.965Z,22.13
2023-05-13T14:06:50.212Z,22.23
2023-05-13T14:09:28.410Z,21.97
2023-05-13T14:11:58.918Z,21.82
2023-05-13T14:14:29.673Z,21.99
2023-05-13T14:17:02.699Z,22.06
2023-05-13T14:19:36.121Z,22.03
2023-05-13T14:22:19.427Z,22.06
2023-05-13T14:24:54.043Z,22.09
2023-05-13T14:27:24.961Z,22.25
2023-05-13T14:29:57.597Z,22.49
2023-05-13T14:32:29.805Z,22.58
2023-05-13T14:35:02.895Z,22.70
2023-05-13T14:37:35.913Z,22.83
2023-05-13T14:40:12.473Z,22.87
2023-05-13T14:42:43.183Z,22.85
2023-05-13T14:45:19.900Z,22.75
2023-05-13T14:47:54.165Z,22.64
2023-05-13T14:50:27.423Z,22.41
2023-05-13T14:53:05.370Z,22.16
2023-05-13T14:55:38.731Z,22.14
2023-05-13T14:58:10.049Z,22.20
2023-05-13T15:00:42.583Z,22.39
2023-05-13T15:03:14.343Z,22.50
2023-05-13T15:05:45.750Z,22.59
2023-05-13T15:08:16.894Z,22.58
2023-05-13T15:10:51.223Z,22.55
2023-05-13T15:13:21.802Z,22.53
2023-05-13T15:16:11.161Z,22.53
2023-05-13T15:18:44.711Z,22.39
2023-05-13T15:21:15.399Z,22.43
2023-05-13T15:23:45.970Z,22.58
2023-05-13T15:26:20.282Z,22.63
2023-05-13T15:28:51.563Z,22.56
2023-05-13T15:31:22.727Z,22.44
2023-05-13T15:33:53.565Z,22.47
2023-05-13T15:36:27.654Z,22.51
2023-05-13T15:39:11.247Z,22.58
2023-05-13T15:41:46.611Z,22.62
2023-05-13T15:44:17.168Z,22.72
2023-05-13T15:46:50.644Z,22.68
2023-05-13T15:49:33.801Z,22.64
2023-05-13T15:52:07.256Z,22.41
2023-05-13T15:54:39.502Z,22.24
2023-05-13T15:57:12.720Z,22.09
2023-05-13T15:59:45.707Z,21.99
2023-05-13T16:02:18.464Z,21.89
2023-05-13T16:04:49.153Z,21.89
2023-05-13T16:07:19.697Z,21.86
2023-05-13T16:09:50.348Z,21.92
2023-05-13T16:12:23.694Z,21.96
2023-05-13T16:14:55.078Z,22.11
2023-05-13T16:17:26.753Z,22.22
2023-05-13T16:19:57.572Z,22.28
2023-05-13T16:22:30.560Z,22.17
2023-05-13T16:25:05.802Z,22.12
2023-05-13T16:27:48.119Z,21.93
2023-05-13T16:30:19.251Z,21.93
2023-05-13T16:32:53.509Z,21.60
2023-05-13T16:35:27.150Z,21.69
2023-05-13T16:37:57.856Z,21.64
2023-05-13T16:40:36.346Z,21.62
2023-05-13T16:43:09.861Z,21.63
2023-05-13T16:45:43.071Z,21.64
2023-05-13T16:48:16.206Z,21.68
2023-05-13T16:50:57.728Z,21.82
2023-05-13T16:53:31.632Z,22.02
2023-05-13T16:56:02.536Z,22.12
2023-05-13T16:58:43.203Z,21.98
2023-05-13T17:01:14.919Z,21.94
2023-05-13T17:03:47.730Z,21.90
2023-05-13T17:06:20.235Z,21.82
2023-05-13T17:08:54.117Z,21.61
2023-05-13T17:11:24.687Z,21.53
2023-05-13T17:14:00.583Z,21.40
2023-05-13T17:16:37.366Z,21.25
2023-05-13T17:19:08.170Z,21.19
2023-05-13T17:21:38.925Z,21.10
2023-05-13T17:24:11.387Z,21.02
2023-05-13T17:26:42.241Z,20.93
2023-05-13T17:29:33.316Z,20.86
2023-05-13T17:32:04.299Z,20.80
2023-05-13T17:34:42.905Z,20.78
2023-05-13T17:37:13.661Z,20.73
2023-05-13T17:39:47.802Z,20.70
2023-05-13T17:42:20.612Z,20.69
2023-05-13T17:44:53.869Z,20.63
2023-05-13T17:47:24.631Z,20.61
2023-05-13T17:50:01.402Z,20.60
2023-05-13T17:52:32.003Z,20.55
2023-05-13T17:55:05.355Z,20.52
2023-05-13T17:57:36.031Z,20.43
2023-05-13T18:00:10.692Z,20.41
2023-05-13T18:02:41.288Z,20.40
2023-05-13T18:05:29.452Z,20.37
2023-05-13T18:08:16.319Z,20.32
2023-05-13T18:10:46.977Z,20.26
2023-05-13T18:13:20.528Z,20.21
2023-05-13T18:15:54.372Z,20.23
2023-05-13T18:18:28.934Z,20.18
2023-05-13T18:21:00.204Z,20.12
2023-05-13T18:23:34.780Z,20.11
2023-05-13T18:26:05.388Z,20.08
2023-05-13T18:28:38.791Z,20.06
2023-05-13T18:31:12.174Z,20.05
2023-05-13T18:33:46.647Z,20.00
2023-05-13T18:36:28.972Z,19.99
2023-05-13T18:38:59.539Z,19.93
2023-05-13T18:41:33.298Z,19.87
2023-05-13T18:44:05.684Z,19.83
2023-05-13T18:46:41.141Z,19.77
2023-05-13T18:49:11.641Z,19.70
2023-05-13T18:51:42.207Z,19.67
2023-05-13T18:54:14.714Z,19.60
2023-05-13T18:56:49.755Z,19.53
2023-05-13T18:59:31.612Z,19.46
2023-05-13T19:02:06.500Z,19.37
2023-05-13T19:04:41.667Z,19.29
2023-05-13T19:07:14.667Z,19.24
2023-05-13T19:09:45.540Z,19.19
2023-05-13T19:12:16.214Z,19.16
2023-05-13T19:14:46.785Z,19.04
2023-05-13T19:17:20.183Z,18.95
2023-05-13T19:19:51.164Z,18.80
2023-05-13T19:22:21.847Z,18.67
2023-05-13T19:24:52.466Z,18.64
2023-05-13T19:27:32.201Z,18.55
2023-05-13T19:30:02.814Z,18.47
2023-05-13T19:32:37.707Z,18.38
2023-05-13T19:35:09.897Z,18.27
2023-05-13T19:37:40.887Z,18.18
2023-05-13T19:40:13.496Z,18.08
2023-05-13T19:42:44.148Z,17.98
2023-05-13T19:45:21.738Z,17.90
2023-05-13T19:47:54.844Z,17.81
2023-05-13T19:50:25.722Z,17.75
2023-05-13T19:52:57.903Z,17.73
2023-05-13T19:55:30.519Z,17.66
2023-05-13T19:58:01.142Z,17.58
2023-05-13T20:00:31.740Z,17.51
2023-05-13T20:03:09.121Z,17.48
2023-05-13T20:05:39.839Z,17.42
2023-05-13T20:08:10.906Z,17.29
2023-05-13T20:10:44.209Z,17.28
2023-05-13T20:13:15.098Z,17.19
2023-05-13T20:15:47.965Z,17.14
2023-05-13T20:18:22.734Z,17.09
2023-05-13T20:20:53.928Z,17.07
2023-05-13T20:23:24.471Z,17.04
2023-05-13T20:25:56.999Z,17.01
2023-05-13T20:28:44.461Z,16.96
2023-05-13T20:31:15.061Z,16.90
2023-05-13T20:33:58.165Z,16.86
2023-05-13T20:36:28.753Z,16.78
2023-05-13T20:38:59.293Z,16.74
2023-05-13T20:41:29.864Z,16.59
2023-05-13T20:44:03.220Z,16.62
2023-05-13T20:46:33.817Z,16.56
2023-05-13T20:49:07.601Z,16.50
2023-05-13T20:51:42.494Z,16.44
2023-05-13T20:54:13.986Z,16.44
2023-05-13T20:56:46.842Z,16.31
2023-05-13T20:59:20.155Z,16.40
2023-05-13T21:01:50.951Z,16.33
2023-05-13T21:04:25.566Z,16.33
2023-05-13T21:06:56.314Z,16.30
2023-05-13T21:09:28.793Z,16.23
2023-05-13T21:11:59.434Z,16.22
2023-05-13T21:14:30.029Z,16.23
2023-05-13T21:17:03.306Z,16.22
2023-05-13T21:19:41.150Z,16.16
2023-05-13T21:22:14.436Z,16.12
2023-05-13T21:24:47.330Z,16.07
2023-05-13T21:27:19.014Z,16.01
2023-05-13T21:29:49.571Z,15.97
2023-05-13T21:32:20.097Z,15.93
2023-05-13T21:34:53.408Z,15.87
2023-05-13T21:37:23.939Z,15.84
2023-05-13T21:39:54.630Z,15.82
2023-05-13T21:42:25.217Z,15.75
2023-05-13T21:44:57.069Z,15.69
2023-05-13T21:47:30.087Z,15.65
2023-05-13T21:50:03.506Z,15.61
2023-05-13T21:52:37.963Z,15.56
2023-05-13T21:55:09.947Z,15.49
2023-05-13T21:57:40.878Z,15.47
2023-05-13T22:00:15.350Z,15.44
2023-05-13T22:02:51.505Z,15.39
2023-05-13T22:05:25.546Z,15.39
2023-05-13T22:08:00.446Z,15.38
2023-05-13T22:10:33.485Z,15.39
2023-05-13T22:13:04.085Z,15.24
2023-05-13T22:15:34.865Z,15.34
2023-05-13T22:18:05.491Z,15.30
2023-05-13T22:20:48.408Z,15.26
2023-05-13T22:23:19.034Z,15.22
2023-05-13T22:25:50.131Z,15.18
2023-05-13T22:28:22.712Z,15.13
2023-05-13T22:30:55.473Z,15.04
2023-05-13T22:33:26.237Z,15.02
2023-05-13T22:36:00.850Z,15.00
2023-05-13T22:38:31.619Z,14.95
2023-05-13T22:41:03.988Z,14.92
2023-05-13T22:43:35.339Z,14.89
2023-05-13T22:46:07.443Z,14.85
2023-05-13T22:48:40.706Z,14.78
2023-05-13T22:51:13.885Z,14.73
2023-05-13T22:53:44.604Z,14.68
2023-05-13T22:56:16.014Z,14.67
2023-05-13T22:58:46.589Z,14.63
2023-05-13T23:01:19.041Z,14.60
2023-05-13T23:03:49.574Z,14.58
2023-05-13T23:06:24.738Z,14.55
2023-05-13T23:08:56.100Z,14.52
2023-05-13T23:11:26.678Z,14.48
2023-05-13T23:14:01.684Z,14.44
2023-05-13T23:16:32.480Z,14.39
2023-05-13T23:19:04.107Z,14.29
2023-05-13T23:21:37.356Z,14.32
2023-05-13T23:24:08.371Z,14.26
2023-05-13T23:26:39.010Z,14.20
2023-05-13T23:29:10.927Z,14.13
2023-05-13T23:31:43.065Z,14.11
2023-05-13T23:34:13.934Z,14.08
2023-05-13T23:36:47.168Z,14.04
2023-05-13T23:39:17.714Z,13.99
2023-05-13T23:41:48.357Z,13.95
2023-05-13T23:44:23.330Z,13.92
2023-05-13T23:46:54.158Z,13.89
2023-05-13T23:49:27.402Z,13.87
2023-05-13T23:52:00.602Z,13.82
2023-05-13T23:54:35.175Z,13.77
2023-05-13T23:57:06.078Z,13.74
2023-05-13T23:59:36.720Z,13.77
